sensor_id;sensor_type;location;lat;lon;timestamp;P1;durP1;ratioP1;P2;durP2;ratioP2
47896;SDS011;39629;51.400;5.494;2022-07-05T00:00:10;1.52;;;0.90;;
47896;SDS011;39629;51.400;5.494;2022-07-05T00:05:13;2.47;;;1.10;;
47896;SDS011;39629;51.400;5.494;2022-07-05T00:10:16;2.80;;;1.10;;
47896;SDS011;39629;51.400;5.494;2022-07-05T00:15:18;3.73;;;1.10;;
47896;SDS011;39629;51.400;5.494;2022-07-05T00:20:19;1.42;;;0.88;;
47896;SDS011;39629;51.400;5.494;2022-07-05T00:25:22;1.58;;;1.10;;
47896;SDS011;39629;51.400;5.494;2022-07-05T00:30:24;2.10;;;1.30;;
47896;SDS011;39629;51.400;5.494;2022-07-05T00:35:26;2.10;;;0.90;;
47896;SDS011;39629;51.400;5.494;2022-07-05T00:40:29;1.48;;;1.00;;
47896;SDS011;39629;51.400;5.494;2022-07-05T00:45:31;1.87;;;1.10;;
47896;SDS011;39629;51.400;5.494;2022-07-05T00:50:33;1.50;;;1.05;;
47896;SDS011;39629;51.400;5.494;2022-07-05T00:55:36;1.73;;;1.10;;
47896;SDS011;39629;51.400;5.494;2022-07-05T01:00:38;2.97;;;1.10;;
47896;SDS011;39629;51.400;5.494;2022-07-05T01:05:40;1.70;;;1.02;;
47896;SDS011;39629;51.400;5.494;2022-07-05T01:10:43;1.80;;;0.90;;
47896;SDS011;39629;51.400;5.494;2022-07-05T01:15:45;1.88;;;1.00;;
47896;SDS011;39629;51.400;5.494;2022-07-05T01:20:47;2.10;;;1.20;;
47896;SDS011;39629;51.400;5.494;2022-07-05T01:25:51;2.63;;;1.73;;
47896;SDS011;39629;51.400;5.494;2022-07-05T01:30:55;1.92;;;1.00;;
47896;SDS011;39629;51.400;5.494;2022-07-05T01:35:57;1.40;;;0.90;;
47896;SDS011;39629;51.400;5.494;2022-07-05T01:41:00;1.05;;;0.85;;
47896;SDS011;39629;51.400;5.494;2022-07-05T01:46:02;2.42;;;1.00;;
47896;SDS011;39629;51.400;5.494;2022-07-05T01:51:07;2.78;;;1.30;;
47896;SDS011;39629;51.400;5.494;2022-07-05T01:56:16;2.95;;;1.10;;
47896;SDS011;39629;51.400;5.494;2022-07-05T02:01:30;1.58;;;1.08;;
47896;SDS011;39629;51.400;5.494;2022-07-05T02:06:33;2.80;;;1.45;;
47896;SDS011;39629;51.400;5.494;2022-07-05T02:11:37;2.15;;;1.30;;
47896;SDS011;39629;51.400;5.494;2022-07-05T02:16:39;1.98;;;1.08;;
47896;SDS011;39629;51.400;5.494;2022-07-05T02:21:41;1.77;;;1.35;;
47896;SDS011;39629;51.400;5.494;2022-07-05T02:26:49;2.90;;;1.38;;
47896;SDS011;39629;51.400;5.494;2022-07-05T02:31:52;2.67;;;1.15;;
47896;SDS011;39629;51.400;5.494;2022-07-05T02:36:53;2.15;;;1.08;;
47896;SDS011;39629;51.400;5.494;2022-07-05T02:41:56;2.38;;;1.02;;
47896;SDS011;39629;51.400;5.494;2022-07-05T02:46:59;1.50;;;1.00;;
47896;SDS011;39629;51.400;5.494;2022-07-05T02:57:07;1.15;;;0.88;;
47896;SDS011;39629;51.400;5.494;2022-07-05T03:02:09;1.30;;;1.00;;
47896;SDS011;39629;51.400;5.494;2022-07-05T03:07:14;1.60;;;1.20;;
47896;SDS011;39629;51.400;5.494;2022-07-05T03:12:19;1.63;;;1.25;;
47896;SDS011;39629;51.400;5.494;2022-07-05T03:17:21;1.98;;;1.30;;
47896;SDS011;39629;51.400;5.494;2022-07-05T03:22:23;2.00;;;1.42;;
47896;SDS011;39629;51.400;5.494;2022-07-05T03:27:26;2.22;;;1.30;;
47896;SDS011;39629;51.400;5.494;2022-07-05T03:32:29;2.15;;;1.50;;
47896;SDS011;39629;51.400;5.494;2022-07-05T03:37:32;3.08;;;1.70;;
47896;SDS011;39629;51.400;5.494;2022-07-05T03:42:35;1.48;;;1.10;;
47896;SDS011;39629;51.400;5.494;2022-07-05T03:47:38;2.57;;;1.20;;
47896;SDS011;39629;51.400;5.494;2022-07-05T03:52:43;1.77;;;0.98;;
47896;SDS011;39629;51.400;5.494;2022-07-05T03:57:46;1.60;;;1.10;;
47896;SDS011;39629;51.400;5.494;2022-07-05T04:02:50;1.90;;;1.40;;
47896;SDS011;39629;51.400;5.494;2022-07-05T04:07:53;4.30;;;1.73;;
47896;SDS011;39629;51.400;5.494;2022-07-05T04:13:03;2.42;;;1.70;;
47896;SDS011;39629;51.400;5.494;2022-07-05T04:18:06;3.38;;;2.10;;
47896;SDS011;39629;51.400;5.494;2022-07-05T04:23:11;2.78;;;2.00;;
47896;SDS011;39629;51.400;5.494;2022-07-05T04:28:15;3.65;;;2.47;;
47896;SDS011;39629;51.400;5.494;2022-07-05T04:38:22;4.63;;;2.30;;
47896;SDS011;39629;51.400;5.494;2022-07-05T04:43:26;3.25;;;2.30;;
47896;SDS011;39629;51.400;5.494;2022-07-05T04:48:27;3.20;;;2.20;;
47896;SDS011;39629;51.400;5.494;2022-07-05T04:53:30;4.43;;;2.70;;
47896;SDS011;39629;51.400;5.494;2022-07-05T04:58:33;3.30;;;2.47;;
47896;SDS011;39629;51.400;5.494;2022-07-05T05:03:35;2.67;;;1.98;;
47896;SDS011;39629;51.400;5.494;2022-07-05T05:08:36;5.47;;;3.30;;
47896;SDS011;39629;51.400;5.494;2022-07-05T05:13:39;5.40;;;3.53;;
47896;SDS011;39629;51.400;5.494;2022-07-05T05:18:45;6.10;;;3.63;;
47896;SDS011;39629;51.400;5.494;2022-07-05T05:23:47;6.35;;;3.28;;
47896;SDS011;39629;51.400;5.494;2022-07-05T05:28:50;6.50;;;3.92;;
47896;SDS011;39629;51.400;5.494;2022-07-05T05:33:51;5.75;;;3.92;;
47896;SDS011;39629;51.400;5.494;2022-07-05T05:38:53;9.82;;;3.65;;
47896;SDS011;39629;51.400;5.494;2022-07-05T05:43:56;7.07;;;3.97;;
47896;SDS011;39629;51.400;5.494;2022-07-05T05:48:58;6.00;;;3.85;;
47896;SDS011;39629;51.400;5.494;2022-07-05T05:53:59;5.88;;;4.10;;
47896;SDS011;39629;51.400;5.494;2022-07-05T05:59:02;7.03;;;4.00;;
47896;SDS011;39629;51.400;5.494;2022-07-05T06:04:04;7.00;;;4.35;;
47896;SDS011;39629;51.400;5.494;2022-07-05T06:09:06;8.10;;;4.32;;
47896;SDS011;39629;51.400;5.494;2022-07-05T06:14:08;6.72;;;4.10;;
47896;SDS011;39629;51.400;5.494;2022-07-05T06:19:12;6.65;;;4.30;;
47896;SDS011;39629;51.400;5.494;2022-07-05T06:24:13;14.80;;;5.20;;
47896;SDS011;39629;51.400;5.494;2022-07-05T06:29:16;20.38;;;5.65;;
47896;SDS011;39629;51.400;5.494;2022-07-05T06:34:18;23.63;;;6.90;;
47896;SDS011;39629;51.400;5.494;2022-07-05T06:39:20;31.25;;;8.05;;
47896;SDS011;39629;51.400;5.494;2022-07-05T06:44:22;25.98;;;6.22;;
47896;SDS011;39629;51.400;5.494;2022-07-05T06:49:24;25.80;;;6.68;;
47896;SDS011;39629;51.400;5.494;2022-07-05T06:54:26;18.13;;;5.03;;
47896;SDS011;39629;51.400;5.494;2022-07-05T06:59:29;13.98;;;4.28;;
47896;SDS011;39629;51.400;5.494;2022-07-05T07:04:31;13.75;;;3.60;;
47896;SDS011;39629;51.400;5.494;2022-07-05T07:09:32;7.75;;;3.05;;
47896;SDS011;39629;51.400;5.494;2022-07-05T07:14:35;5.80;;;2.95;;
47896;SDS011;39629;51.400;5.494;2022-07-05T07:19:37;7.38;;;2.88;;
47896;SDS011;39629;51.400;5.494;2022-07-05T07:24:38;6.40;;;2.85;;
47896;SDS011;39629;51.400;5.494;2022-07-05T07:29:41;9.00;;;2.63;;
47896;SDS011;39629;51.400;5.494;2022-07-05T07:34:43;5.60;;;2.60;;
47896;SDS011;39629;51.400;5.494;2022-07-05T07:39:45;7.55;;;3.17;;
47896;SDS011;39629;51.400;5.494;2022-07-05T07:44:47;5.18;;;3.20;;
47896;SDS011;39629;51.400;5.494;2022-07-05T07:49:49;5.43;;;2.97;;
47896;SDS011;39629;51.400;5.494;2022-07-05T07:54:51;6.97;;;3.67;;
47896;SDS011;39629;51.400;5.494;2022-07-05T07:59:54;7.47;;;3.45;;
47896;SDS011;39629;51.400;5.494;2022-07-05T08:04:55;7.63;;;2.90;;
47896;SDS011;39629;51.400;5.494;2022-07-05T08:09:58;5.93;;;2.60;;
47896;SDS011;39629;51.400;5.494;2022-07-05T08:15:01;9.95;;;2.53;;
47896;SDS011;39629;51.400;5.494;2022-07-05T08:20:03;6.63;;;2.83;;
47896;SDS011;39629;51.400;5.494;2022-07-05T08:25:22;8.27;;;3.05;;
47896;SDS011;39629;51.400;5.494;2022-07-05T08:30:25;7.10;;;3.30;;
47896;SDS011;39629;51.400;5.494;2022-07-05T08:35:27;6.95;;;2.85;;
47896;SDS011;39629;51.400;5.494;2022-07-05T08:40:29;8.55;;;2.38;;
47896;SDS011;39629;51.400;5.494;2022-07-05T08:45:34;6.68;;;1.95;;
47896;SDS011;39629;51.400;5.494;2022-07-05T08:50:36;4.97;;;2.05;;
47896;SDS011;39629;51.400;5.494;2022-07-05T08:55:40;8.00;;;1.83;;
47896;SDS011;39629;51.400;5.494;2022-07-05T09:00:44;4.37;;;1.90;;
47896;SDS011;39629;51.400;5.494;2022-07-05T09:05:46;4.03;;;1.70;;
47896;SDS011;39629;51.400;5.494;2022-07-05T09:10:48;4.53;;;1.70;;
47896;SDS011;39629;51.400;5.494;2022-07-05T09:15:52;4.20;;;1.90;;
47896;SDS011;39629;51.400;5.494;2022-07-05T09:21:01;3.60;;;1.60;;
47896;SDS011;39629;51.400;5.494;2022-07-05T09:26:12;3.05;;;1.50;;
47896;SDS011;39629;51.400;5.494;2022-07-05T09:31:18;4.63;;;1.90;;
47896;SDS011;39629;51.400;5.494;2022-07-05T09:36:28;3.73;;;1.20;;
47896;SDS011;39629;51.400;5.494;2022-07-05T09:41:29;3.47;;;1.17;;
47896;SDS011;39629;51.400;5.494;2022-07-05T09:46:32;2.47;;;0.90;;
47896;SDS011;39629;51.400;5.494;2022-07-05T09:51:46;6.50;;;1.20;;
47896;SDS011;39629;51.400;5.494;2022-07-05T09:56:49;2.47;;;1.20;;
47896;SDS011;39629;51.400;5.494;2022-07-05T10:01:52;2.50;;;0.85;;
47896;SDS011;39629;51.400;5.494;2022-07-05T10:11:55;3.28;;;1.27;;
47896;SDS011;39629;51.400;5.494;2022-07-05T10:16:59;3.40;;;1.30;;
47896;SDS011;39629;51.400;5.494;2022-07-05T10:22:02;3.17;;;1.40;;
47896;SDS011;39629;51.400;5.494;2022-07-05T10:27:06;3.47;;;1.40;;
47896;SDS011;39629;51.400;5.494;2022-07-05T10:32:10;4.32;;;1.40;;
47896;SDS011;39629;51.400;5.494;2022-07-05T10:37:13;2.15;;;1.33;;
47896;SDS011;39629;51.400;5.494;2022-07-05T10:42:15;3.15;;;1.20;;
47896;SDS011;39629;51.400;5.494;2022-07-05T10:47:19;3.22;;;1.35;;
47896;SDS011;39629;51.400;5.494;2022-07-05T10:52:21;2.33;;;0.90;;
47896;SDS011;39629;51.400;5.494;2022-07-05T10:57:24;3.47;;;1.20;;
47896;SDS011;39629;51.400;5.494;2022-07-05T11:02:28;4.85;;;1.75;;
47896;SDS011;39629;51.400;5.494;2022-07-05T11:12:49;3.28;;;1.65;;
47896;SDS011;39629;51.400;5.494;2022-07-05T11:17:52;4.00;;;1.98;;
47896;SDS011;39629;51.400;5.494;2022-07-05T11:23:17;3.30;;;1.95;;
47896;SDS011;39629;51.400;5.494;2022-07-05T11:28:28;3.65;;;2.42;;
47896;SDS011;39629;51.400;5.494;2022-07-05T11:33:45;4.18;;;2.17;;
47896;SDS011;39629;51.400;5.494;2022-07-05T11:39:07;3.72;;;2.63;;
47896;SDS011;39629;51.400;5.494;2022-07-05T11:44:11;3.47;;;2.10;;
47896;SDS011;39629;51.400;5.494;2022-07-05T11:49:19;3.30;;;1.60;;
47896;SDS011;39629;51.400;5.494;2022-07-05T11:54:22;3.63;;;1.40;;
47896;SDS011;39629;51.400;5.494;2022-07-05T11:59:24;4.75;;;2.10;;
47896;SDS011;39629;51.400;5.494;2022-07-05T12:04:28;4.35;;;2.10;;
47896;SDS011;39629;51.400;5.494;2022-07-05T12:09:32;2.15;;;1.13;;
47896;SDS011;39629;51.400;5.494;2022-07-05T12:14:48;2.58;;;0.85;;
47896;SDS011;39629;51.400;5.494;2022-07-05T12:24:54;1.23;;;0.80;;
47896;SDS011;39629;51.400;5.494;2022-07-05T12:29:58;1.85;;;0.90;;
47896;SDS011;39629;51.400;5.494;2022-07-05T12:35:03;3.83;;;0.93;;
47896;SDS011;39629;51.400;5.494;2022-07-05T12:40:06;2.95;;;1.30;;
47896;SDS011;39629;51.400;5.494;2022-07-05T12:45:09;1.77;;;1.10;;
47896;SDS011;39629;51.400;5.494;2022-07-05T12:50:13;3.10;;;1.08;;
47896;SDS011;39629;51.400;5.494;2022-07-05T12:55:14;3.53;;;1.10;;
47896;SDS011;39629;51.400;5.494;2022-07-05T13:00:34;2.95;;;0.80;;
47896;SDS011;39629;51.400;5.494;2022-07-05T13:05:37;1.67;;;1.02;;
47896;SDS011;39629;51.400;5.494;2022-07-05T13:10:45;2.35;;;1.00;;
47896;SDS011;39629;51.400;5.494;2022-07-05T13:15:47;1.55;;;1.00;;
47896;SDS011;39629;51.400;5.494;2022-07-05T13:20:50;3.88;;;1.40;;
47896;SDS011;39629;51.400;5.494;2022-07-05T13:25:53;1.60;;;0.70;;
47896;SDS011;39629;51.400;5.494;2022-07-05T13:30:56;2.00;;;0.70;;
47896;SDS011;39629;51.400;5.494;2022-07-05T13:35:59;1.55;;;0.70;;
47896;SDS011;39629;51.400;5.494;2022-07-05T13:41:01;4.80;;;0.80;;
47896;SDS011;39629;51.400;5.494;2022-07-05T13:46:02;2.13;;;0.60;;
47896;SDS011;39629;51.400;5.494;2022-07-05T13:51:05;2.08;;;0.70;;
47896;SDS011;39629;51.400;5.494;2022-07-05T13:56:07;2.35;;;0.63;;
47896;SDS011;39629;51.400;5.494;2022-07-05T14:01:09;2.78;;;0.70;;
47896;SDS011;39629;51.400;5.494;2022-07-05T14:06:12;2.70;;;0.80;;
47896;SDS011;39629;51.400;5.494;2022-07-05T14:11:13;1.90;;;0.70;;
47896;SDS011;39629;51.400;5.494;2022-07-05T14:16:15;1.35;;;0.60;;
47896;SDS011;39629;51.400;5.494;2022-07-05T14:21:18;4.18;;;0.60;;
47896;SDS011;39629;51.400;5.494;2022-07-05T14:26:20;1.60;;;0.70;;
47896;SDS011;39629;51.400;5.494;2022-07-05T14:31:21;4.45;;;0.70;;
47896;SDS011;39629;51.400;5.494;2022-07-05T14:36:25;1.08;;;0.50;;
47896;SDS011;39629;51.400;5.494;2022-07-05T14:41:26;2.30;;;1.10;;
47896;SDS011;39629;51.400;5.494;2022-07-05T14:46:29;1.17;;;0.60;;
47896;SDS011;39629;51.400;5.494;2022-07-05T14:51:31;4.30;;;0.82;;
47896;SDS011;39629;51.400;5.494;2022-07-05T15:01:34;1.50;;;0.40;;
47896;SDS011;39629;51.400;5.494;2022-07-05T15:06:37;1.25;;;0.50;;
47896;SDS011;39629;51.400;5.494;2022-07-05T15:11:40;3.45;;;0.50;;
47896;SDS011;39629;51.400;5.494;2022-07-05T15:16:42;1.25;;;0.50;;
47896;SDS011;39629;51.400;5.494;2022-07-05T15:21:45;4.93;;;0.70;;
47896;SDS011;39629;51.400;5.494;2022-07-05T15:31:49;1.20;;;0.43;;
47896;SDS011;39629;51.400;5.494;2022-07-05T15:36:52;1.42;;;0.50;;
47896;SDS011;39629;51.400;5.494;2022-07-05T15:41:54;3.25;;;0.50;;
47896;SDS011;39629;51.400;5.494;2022-07-05T15:46:55;1.77;;;0.60;;
47896;SDS011;39629;51.400;5.494;2022-07-05T15:52:10;3.00;;;0.60;;
47896;SDS011;39629;51.400;5.494;2022-07-05T15:57:12;0.95;;;0.50;;
47896;SDS011;39629;51.400;5.494;2022-07-05T16:02:14;1.60;;;0.63;;
47896;SDS011;39629;51.400;5.494;2022-07-05T16:07:17;0.60;;;0.40;;
47896;SDS011;39629;51.400;5.494;2022-07-05T16:17:21;0.88;;;0.45;;
47896;SDS011;39629;51.400;5.494;2022-07-05T16:22:24;1.88;;;0.47;;
47896;SDS011;39629;51.400;5.494;2022-07-05T16:27:25;1.77;;;0.70;;
47896;SDS011;39629;51.400;5.494;2022-07-05T16:32:27;2.58;;;0.40;;
47896;SDS011;39629;51.400;5.494;2022-07-05T16:37:30;1.88;;;0.57;;
47896;SDS011;39629;51.400;5.494;2022-07-05T16:42:32;1.42;;;0.60;;
47896;SDS011;39629;51.400;5.494;2022-07-05T16:47:33;1.13;;;0.50;;
47896;SDS011;39629;51.400;5.494;2022-07-05T16:52:36;1.65;;;0.60;;
47896;SDS011;39629;51.400;5.494;2022-07-05T16:57:39;1.65;;;0.60;;
47896;SDS011;39629;51.400;5.494;2022-07-05T17:02:40;1.23;;;0.50;;
47896;SDS011;39629;51.400;5.494;2022-07-05T17:07:43;1.83;;;0.70;;
47896;SDS011;39629;51.400;5.494;2022-07-05T17:12:45;1.33;;;0.60;;
47896;SDS011;39629;51.400;5.494;2022-07-05T17:17:47;1.00;;;0.60;;
47896;SDS011;39629;51.400;5.494;2022-07-05T17:22:51;2.17;;;0.60;;
47896;SDS011;39629;51.400;5.494;2022-07-05T17:27:53;4.00;;;0.73;;
47896;SDS011;39629;51.400;5.494;2022-07-05T17:32:55;1.63;;;0.65;;
47896;SDS011;39629;51.400;5.494;2022-07-05T17:37:58;1.33;;;0.60;;
47896;SDS011;39629;51.400;5.494;2022-07-05T17:42:59;1.83;;;0.70;;
47896;SDS011;39629;51.400;5.494;2022-07-05T17:48:01;1.58;;;0.70;;
47896;SDS011;39629;51.400;5.494;2022-07-05T17:53:04;2.17;;;0.70;;
47896;SDS011;39629;51.400;5.494;2022-07-05T17:58:05;2.50;;;0.90;;
47896;SDS011;39629;51.400;5.494;2022-07-05T18:03:07;2.97;;;0.70;;
47896;SDS011;39629;51.400;5.494;2022-07-05T18:08:10;1.27;;;0.75;;
47896;SDS011;39629;51.400;5.494;2022-07-05T18:13:14;2.25;;;0.70;;
47896;SDS011;39629;51.400;5.494;2022-07-05T18:18:15;2.25;;;0.50;;
47896;SDS011;39629;51.400;5.494;2022-07-05T18:23:18;1.58;;;0.75;;
47896;SDS011;39629;51.400;5.494;2022-07-05T18:28:20;4.20;;;0.60;;
47896;SDS011;39629;51.400;5.494;2022-07-05T18:33:22;2.85;;;0.70;;
47896;SDS011;39629;51.400;5.494;2022-07-05T18:38:25;1.80;;;0.80;;
47896;SDS011;39629;51.400;5.494;2022-07-05T18:43:28;1.35;;;0.63;;
47896;SDS011;39629;51.400;5.494;2022-07-05T18:48:30;3.78;;;0.80;;
47896;SDS011;39629;51.400;5.494;2022-07-05T18:53:33;1.27;;;0.90;;
47896;SDS011;39629;51.400;5.494;2022-07-05T18:58:34;2.33;;;0.85;;
47896;SDS011;39629;51.400;5.494;2022-07-05T19:03:36;1.83;;;0.63;;
47896;SDS011;39629;51.400;5.494;2022-07-05T19:08:39;3.47;;;0.70;;
47896;SDS011;39629;51.400;5.494;2022-07-05T19:13:58;2.72;;;0.82;;
47896;SDS011;39629;51.400;5.494;2022-07-05T19:18:59;2.22;;;0.82;;
47896;SDS011;39629;51.400;5.494;2022-07-05T19:24:03;1.52;;;0.80;;
47896;SDS011;39629;51.400;5.494;2022-07-05T19:29:05;3.00;;;0.70;;
47896;SDS011;39629;51.400;5.494;2022-07-05T19:34:06;2.53;;;0.70;;
47896;SDS011;39629;51.400;5.494;2022-07-05T19:39:09;1.20;;;0.60;;
47896;SDS011;39629;51.400;5.494;2022-07-05T19:44:11;2.88;;;0.70;;
47896;SDS011;39629;51.400;5.494;2022-07-05T19:49:12;3.55;;;1.02;;
47896;SDS011;39629;51.400;5.494;2022-07-05T19:54:15;1.48;;;0.60;;
47896;SDS011;39629;51.400;5.494;2022-07-05T19:59:17;1.92;;;0.63;;
47896;SDS011;39629;51.400;5.494;2022-07-05T20:04:19;1.63;;;0.70;;
47896;SDS011;39629;51.400;5.494;2022-07-05T20:09:22;2.55;;;0.88;;
47896;SDS011;39629;51.400;5.494;2022-07-05T20:14:23;2.97;;;0.70;;
47896;SDS011;39629;51.400;5.494;2022-07-05T20:19:25;1.52;;;0.70;;
47896;SDS011;39629;51.400;5.494;2022-07-05T20:24:28;2.78;;;0.70;;
47896;SDS011;39629;51.400;5.494;2022-07-05T20:29:29;1.90;;;0.60;;
47896;SDS011;39629;51.400;5.494;2022-07-05T20:34:31;1.75;;;0.60;;
47896;SDS011;39629;51.400;5.494;2022-07-05T20:39:34;0.90;;;0.50;;
47896;SDS011;39629;51.400;5.494;2022-07-05T20:44:36;1.38;;;0.60;;
47896;SDS011;39629;51.400;5.494;2022-07-05T20:49:38;0.88;;;0.50;;
47896;SDS011;39629;51.400;5.494;2022-07-05T20:54:41;1.98;;;0.80;;
47896;SDS011;39629;51.400;5.494;2022-07-05T20:59:43;2.22;;;0.80;;
47896;SDS011;39629;51.400;5.494;2022-07-05T21:04:45;2.20;;;0.73;;
47896;SDS011;39629;51.400;5.494;2022-07-05T21:09:48;3.20;;;0.80;;
47896;SDS011;39629;51.400;5.494;2022-07-05T21:19:53;1.73;;;0.65;;
47896;SDS011;39629;51.400;5.494;2022-07-05T21:24:56;1.73;;;0.77;;
47896;SDS011;39629;51.400;5.494;2022-07-05T21:29:57;2.33;;;0.80;;
47896;SDS011;39629;51.400;5.494;2022-07-05T21:34:59;2.85;;;0.90;;
47896;SDS011;39629;51.400;5.494;2022-07-05T21:40:02;1.60;;;0.70;;
47896;SDS011;39629;51.400;5.494;2022-07-05T21:45:05;2.17;;;0.82;;
47896;SDS011;39629;51.400;5.494;2022-07-05T21:50:08;4.75;;;1.40;;
47896;SDS011;39629;51.400;5.494;2022-07-05T21:55:11;3.33;;;0.80;;
47896;SDS011;39629;51.400;5.494;2022-07-05T22:00:16;2.25;;;0.82;;
47896;SDS011;39629;51.400;5.494;2022-07-05T22:05:38;1.37;;;0.80;;
47896;SDS011;39629;51.400;5.494;2022-07-05T22:10:41;1.90;;;0.80;;
47896;SDS011;39629;51.400;5.494;2022-07-05T22:15:42;1.42;;;0.85;;
47896;SDS011;39629;51.400;5.494;2022-07-05T22:20:44;1.70;;;0.77;;
47896;SDS011;39629;51.400;5.494;2022-07-05T22:25:47;2.50;;;0.82;;
47896;SDS011;39629;51.400;5.494;2022-07-05T22:30:49;2.00;;;0.88;;
47896;SDS011;39629;51.400;5.494;2022-07-05T22:35:51;1.55;;;0.73;;
47896;SDS011;39629;51.400;5.494;2022-07-05T22:40:54;2.67;;;0.88;;
47896;SDS011;39629;51.400;5.494;2022-07-05T22:45:55;2.33;;;0.90;;
47896;SDS011;39629;51.400;5.494;2022-07-05T22:50:57;2.10;;;0.88;;
47896;SDS011;39629;51.400;5.494;2022-07-05T22:56:00;3.50;;;1.00;;
47896;SDS011;39629;51.400;5.494;2022-07-05T23:01:02;2.15;;;0.88;;
47896;SDS011;39629;51.400;5.494;2022-07-05T23:06:03;2.50;;;0.95;;
47896;SDS011;39629;51.400;5.494;2022-07-05T23:11:06;1.75;;;1.00;;
47896;SDS011;39629;51.400;5.494;2022-07-05T23:16:09;3.23;;;0.90;;
47896;SDS011;39629;51.400;5.494;2022-07-05T23:21:10;1.40;;;0.80;;
47896;SDS011;39629;51.400;5.494;2022-07-05T23:26:13;1.30;;;0.85;;
47896;SDS011;39629;51.400;5.494;2022-07-05T23:31:15;3.40;;;1.10;;
47896;SDS011;39629;51.400;5.494;2022-07-05T23:36:16;1.50;;;0.80;;
47896;SDS011;39629;51.400;5.494;2022-07-05T23:41:19;3.15;;;1.10;;
47896;SDS011;39629;51.400;5.494;2022-07-05T23:46:21;2.50;;;1.00;;
47896;SDS011;39629;51.400;5.494;2022-07-05T23:51:23;2.47;;;1.20;;
47896;SDS011;39629;51.400;5.494;2022-07-05T23:56:26;2.35;;;1.10;;
